Csl Argosy — C6UZ9 — position and weather

sailwx.info

Track history (hours):
 
Tides and Currents Weather Stations Pressure Air Temp Water Temp Dewpoint Dewpoint Depression Visibility Wind Speed Wind Dir Waves Ship Positions

Csl Argosy

Last reported at 2017-Aug-20 16:15 UTC. Time now 2017-Aug-20 19:10 UTC.
Position N 61°39' E 004°22'.

Length 244 m; draft 13.5 m.

Type: Cargo ship. MMSI: 308299000.

Date/timePositionNaut miles runAvg speedWind from/ knotsBaromVisibWave heightAir tempDewpointWater temp
2017-Aug-20 16:15N 61°39' E 004°22'2 9.2
2017-Aug-20 16:00N 61°40' E 004°26'5 9.6
2017-Aug-20 15:30N 61°42' E 004°35'510.2
2017-Aug-20 15:00N 61°42' E 004°46'5 9.9
2017-Aug-20 14:30N 61°44' E 004°55'4 8.6
2017-Aug-20 14:00N 61°46' E 005°04'3 5.5
2017-Aug-20 13:30N 61°46' E 005°10'0 0.2
2017-Aug-20 13:00N 61°46' E 005°10'0 0.0
2017-Aug-20 12:30N 61°46' E 005°10'0 0.0
2017-Aug-20 11:57N 61°46' E 005°10'0 0.0
2017-Aug-20 11:27N 61°46' E 005°10'0 0.0
2017-Aug-20 10:57N 61°46' E 005°10'0 0.0
2017-Aug-20 10:30N 61°46' E 005°10'0 0.0
2017-Aug-20 10:00N 61°46' E 005°10'0 0.0
2017-Aug-20 09:30N 61°46' E 005°10'0 0.0
2017-Aug-20 09:00N 61°46' E 005°10'0 0.0
2017-Aug-20 08:30N 61°46' E 005°10'0 0.0
2017-Aug-20 08:00N 61°46' E 005°10'0 0.0
2017-Aug-20 07:30N 61°46' E 005°10'0 0.0
2017-Aug-20 06:57N 61°46' E 005°10'0 0.0
2017-Aug-20 06:30N 61°46' E 005°10'0 0.0
2017-Aug-20 06:00N 61°46' E 005°10'0 0.0
2017-Aug-20 05:30N 61°46' E 005°10'0 0.0
2017-Aug-20 05:00N 61°46' E 005°10'0 0.0
2017-Aug-20 04:30N 61°46' E 005°10'0 0.0
2017-Aug-20 04:00N 61°46' E 005°10'0 0.0
2017-Aug-20 03:30N 61°46' E 005°10'0 0.0
2017-Aug-20 02:57N 61°46' E 005°10'0 0.0
2017-Aug-20 02:30N 61°46' E 005°10'0 0.0
2017-Aug-20 02:00N 61°46' E 005°10'0 0.0
2017-Aug-20 01:30N 61°46' E 005°10'0 0.0
2017-Aug-20 01:00N 61°46' E 005°10'0 0.1
2017-Aug-20 00:30N 61°46' E 005°10'0 0.0
2017-Aug-20 00:00N 61°46' E 005°10'0 0.0
2017-Aug-19 23:30N 61°46' E 005°10'0 0.0
2017-Aug-19 22:57N 61°46' E 005°10'0 0.0
2017-Aug-19 22:24N 61°46' E 005°10'0 0.0
2017-Aug-19 22:00N 61°46' E 005°10'0 0.0
2017-Aug-19 21:30N 61°46' E 005°10'0 0.0
2017-Aug-19 20:54N 61°46' E 005°10'0 0.0
2017-Aug-19 20:30N 61°46' E 005°10'0 0.0
2017-Aug-19 20:00N 61°46' E 005°10'0 0.0
2017-Aug-19 19:30N 61°46' E 005°10'0 0.0
2017-Aug-19 19:00N 61°46' E 005°10'0 0.0
2017-Aug-19 18:30N 61°46' E 005°10'0 0.0
2017-Aug-19 18:00N 61°46' E 005°10'0 0.3
2017-Aug-19 17:30N 61°46' E 005°10'0 0.8
2017-Aug-19 17:00N 61°46' E 005°11'0 0.3
2017-Aug-19 16:30N 61°46' E 005°11'1 1.5
2017-Aug-19 16:00N 61°46' E 005°12'1 1.2
2017-Aug-19 15:30N 61°46' E 005°14'0 0.1
2017-Aug-19 15:00N 61°46' E 005°14'0 0.1
2017-Aug-19 14:00N 61°46' E 005°14'0 0.1
2017-Aug-19 13:30N 61°46' E 005°14'0 0.1
2017-Aug-19 13:00N 61°46' E 005°14'0 0.1
2017-Aug-19 12:27N 61°46' E 005°14'0 0.0
2017-Aug-19 12:00N 61°46' E 005°14'0 0.1
2017-Aug-19 11:30N 61°46' E 005°14'0 0.0
2017-Aug-19 11:00N 61°46' E 005°13'0 0.0
2017-Aug-19 10:27N 61°46' E 005°13'0 0.0
2017-Aug-19 10:00N 61°46' E 005°13'0 0.0
2017-Aug-19 09:30N 61°46' E 005°13'0 0.0
2017-Aug-19 09:00N 61°46' E 005°13'0 0.0
2017-Aug-19 08:30N 61°46' E 005°13'0 0.0
2017-Aug-19 08:00N 61°46' E 005°13'0 0.0
2017-Aug-19 07:21N 61°46' E 005°13'0 0.0
2017-Aug-19 06:57N 61°46' E 005°13'0 0.0
2017-Aug-19 06:27N 61°46' E 005°13'0 0.0
2017-Aug-19 06:00N 61°46' E 005°13'0 0.0
2017-Aug-19 05:30N 61°46' E 005°13'0 0.1
2017-Aug-19 05:00N 61°46' E 005°13'1 1.2
2017-Aug-19 04:29N 61°46' E 005°12'1 2.6
2017-Aug-19 03:59N 61°46' E 005°10'0 0.0
2017-Aug-19 03:29N 61°46' E 005°10'0 0.0
2017-Aug-19 02:59N 61°46' E 005°10'0 0.0
2017-Aug-19 02:26N 61°46' E 005°10'0 0.0
2017-Aug-19 01:59N 61°46' E 005°10'0 0.0
2017-Aug-19 01:29N 61°46' E 005°10'0 0.0
2017-Aug-19 00:59N 61°46' E 005°10'0 0.0
2017-Aug-19 00:26N 61°46' E 005°10'0 0.0
2017-Aug-18 23:56N 61°46' E 005°10'0 0.0
2017-Aug-18 23:29N 61°46' E 005°10'0 0.0
2017-Aug-18 22:59N 61°46' E 005°10'0 0.0
2017-Aug-18 22:20N 61°46' E 005°10'0 0.0
2017-Aug-18 21:59N 61°46' E 005°10'0 0.0
2017-Aug-18 21:29N 61°46' E 005°10'0 0.0
2017-Aug-18 20:59N 61°46' E 005°10'0 0.0
2017-Aug-18 20:29N 61°46' E 005°10'0 0.0
2017-Aug-18 19:59N 61°46' E 005°10'0 0.0
2017-Aug-18 19:26N 61°46' E 005°10'0 0.0
2017-Aug-18 18:59N 61°46' E 005°10'0 0.0
2017-Aug-18 18:29N 61°46' E 005°10'0 0.0
2017-Aug-18 17:59N 61°46' E 005°10'0 0.0
2017-Aug-18 17:29N 61°46' E 005°10'0 0.0
2017-Aug-18 16:59N 61°46' E 005°10'0 0.0
2017-Aug-18 16:29N 61°46' E 005°10'0 0.0
2017-Aug-18 15:59N 61°46' E 005°10'0 0.0
2017-Aug-18 15:29N 61°46' E 005°10'0 0.0
2017-Aug-18 14:59N 61°46' E 005°10'0 0.0
2017-Aug-18 14:26N 61°46' E 005°10'0 0.0
2017-Aug-18 13:29N 61°46' E 005°10'0 0.0
2017-Aug-18 12:59N 61°46' E 005°10'0 0.0
2017-Aug-18 12:29N 61°46' E 005°10'0 0.0
2017-Aug-18 11:59N 61°46' E 005°10'0 0.0
2017-Aug-18 11:29N 61°46' E 005°10'0 0.0
2017-Aug-18 10:59N 61°46' E 005°10'0 0.0
2017-Aug-18 10:29N 61°46' E 005°10'0 0.0
2017-Aug-18 09:56N 61°46' E 005°10'0 0.0
2017-Aug-18 09:30N 61°46' E 005°10'0 0.0
2017-Aug-18 09:00N 61°46' E 005°10'0 0.0
2017-Aug-18 08:30N 61°46' E 005°10'0 0.0
2017-Aug-18 08:01N 61°46' E 005°10'0 0.6
2017-Aug-18 07:29N 61°46' E 005°09'2 4.2
2017-Aug-18 07:00N 61°46' E 005°05'4 7.9
2017-Aug-18 06:30N 61°45' E 004°57'510.3
2017-Aug-18 06:00N 61°42' E 004°47'5 9.9
2017-Aug-18 05:30N 61°42' E 004°37'510.3
2017-Aug-18 05:00N 61°42' E 004°26'168 9.2
2017-Aug-17 10:44N 58°54' E 004°23'310.0
2017-Aug-17 10:27N 58°52' E 004°26'510.0
2017-Aug-17 09:59N 58°49' E 004°32'5 9.9
2017-Aug-17 09:30N 58°45' E 004°39'510.0
2017-Aug-17 09:00N 58°42' E 004°46'510.5
2017-Aug-17 08:30N 58°38' E 004°53'510.7
2017-Aug-17 08:00N 58°35' E 005°01'510.7
2017-Aug-17 07:30N 58°31' E 005°08'611.1
2017-Aug-17 07:00N 58°27' E 005°15'511.1
2017-Aug-17 06:30N 58°23' E 005°22'611.2
2017-Aug-17 06:00N 58°19' E 005°30'612.2
2017-Aug-17 05:30N 58°15' E 005°39'612.2
2017-Aug-17 05:00N 58°11' E 005°48'612.1
2017-Aug-17 04:30N 58°07' E 005°56'612.1
2017-Aug-17 04:00N 58°03' E 006°04'612.5
2017-Aug-17 03:30N 57°58' E 006°13'613.0
2017-Aug-17 03:00N 57°54' E 006°22'712.8
2017-Aug-17 02:30N 57°50' E 006°32'612.5
2017-Aug-17 01:59N 57°47' E 006°42'612.7
2017-Aug-17 01:30N 57°46' E 006°54'712.9
2017-Aug-17 01:00N 57°45' E 007°06'612.8
2017-Aug-17 00:30N 57°45' E 007°18'612.6
2017-Aug-17 00:00N 57°45' E 007°30'612.7
2017-Aug-16 23:30N 57°45' E 007°41'612.3
2017-Aug-16 23:00N 57°46' E 007°53'612.2
2017-Aug-16 22:30N 57°47' E 008°04'2811.5
2017-Aug-16 20:04N 57°49' E 008°56'110.7
2017-Aug-16 19:59N 57°49' E 008°58'910.5
2017-Aug-16 19:07N 57°50' E 009°15'210.4
2017-Aug-16 18:57N 57°50' E 009°18'910.6
2017-Aug-16 18:08N 57°49' E 009°34'210.8
2017-Aug-16 17:56N 57°49' E 009°38'610.8
2017-Aug-16 17:23N 57°49' E 009°50'410.9
2017-Aug-16 17:00N 57°49' E 009°57'611.0
2017-Aug-16 16:30N 57°49' E 010°08'510.8
2017-Aug-16 16:00N 57°49' E 010°18'510.9
2017-Aug-16 15:30N 57°49' E 010°28'610.9
2017-Aug-16 15:00N 57°49' E 010°38'510.2
2017-Aug-16 14:30N 57°48' E 010°48'510.4
2017-Aug-16 13:59N 57°44' E 010°55'510.6
2017-Aug-16 13:30N 57°40' E 011°02'510.4
2017-Aug-16 13:00N 57°37' E 011°08'510.3
2017-Aug-16 12:30N 57°33' E 011°15'510.6
2017-Aug-16 12:00N 57°30' E 011°23'510.4
2017-Aug-16 11:29N 57°25' E 011°28'510.9
2017-Aug-16 11:00N 57°20' E 011°32'611.0
2017-Aug-16 10:30N 57°15' E 011°34'611.0
2017-Aug-16 09:58N 57°10' E 011°38'610.9
2017-Aug-16 09:23N 57°03' E 011°42'610.7
2017-Aug-16 08:51N 56°58' E 011°46'610.3
2017-Aug-16 08:14N 56°52' E 011°49'310.5
2017-Aug-16 07:58N 56°49' E 011°51'7 9.6
2017-Aug-16 07:14N 56°43' E 011°50'311.2
2017-Aug-16 06:58N 56°40' E 011°48'811.1
2017-Aug-16 06:17N 56°33' E 011°41'310.9
2017-Aug-16 05:59N 56°31' E 011°38'510.9
2017-Aug-16 05:29N 56°26' E 011°33'710.9
2017-Aug-16 04:50N 56°20' E 011°26'310.7
2017-Aug-16 04:30N 56°17' E 011°23'810.6
2017-Aug-16 03:48N 56°10' E 011°16'411.4
2017-Aug-16 03:29N 56°08' E 011°12'711.0
2017-Aug-16 02:49N 56°01' E 011°05'411.5
2017-Aug-16 02:29N 55°58' E 011°02'611.8
2017-Aug-16 02:00N 55°54' E 010°55'612.2
2017-Aug-16 01:29N 55°48' E 010°49'612.5
2017-Aug-16 00:59N 55°42' E 010°48'612.3
2017-Aug-16 00:29N 55°36' E 010°49'612.3
2017-Aug-16 00:00N 55°31' E 010°53'611.8
2017-Aug-15 23:30N 55°26' E 010°59'612.7
2017-Aug-15 23:00N 55°20' E 011°02'612.0
2017-Aug-15 22:30N 55°14' E 011°06'612.2
2017-Aug-15 22:00N 55°08' E 011°03'612.8
2017-Aug-15 21:30N 55°02' E 011°02'611.3
2017-Aug-15 21:00N 54°57' E 010°58'713.1
2017-Aug-15 20:30N 54°51' E 010°53'713.5
2017-Aug-15 20:00N 54°44' E 010°53'612.1
2017-Aug-15 19:30N 54°40' E 010°60'713.1
2017-Aug-15 19:00N 54°37' E 011°10'713.2
2017-Aug-15 18:30N 54°34' E 011°20'612.8
2017-Aug-15 18:00N 54°31' E 011°30'612.5
2017-Aug-15 17:30N 54°28' E 011°40'612.3
2017-Aug-15 17:00N 54°25' E 011°49'811.5
2017-Aug-15 16:21N 54°21' E 011°60'710.4
2017-Aug-15 15:41N 54°15' E 012°04'2 9.5
2017-Aug-15 15:30N 54°13' E 012°04'4 1.4
2017-Aug-15 12:45N 54°09' E 012°07'0 0.0
2017-Aug-15 12:27N 54°09' E 012°07'0 0.0
2017-Aug-15 08:36N 54°09' E 012°07'0 0.0
2017-Aug-15 08:27N 54°09' E 012°07'0 0.0
2017-Aug-15 08:00N 54°09' E 012°07'0 0.0
2017-Aug-15 07:15N 54°09' E 012°07'0 0.0
2017-Aug-15 06:57N 54°09' E 012°07'0 0.0
2017-Aug-15 06:30N 54°09' E 012°07'0 0.0
2017-Aug-15 05:21N 54°09' E 012°07'0 0.0
2017-Aug-15 05:00N 54°09' E 012°07'0 0.0
2017-Aug-15 02:57N 54°09' E 012°07'0 0.0
2017-Aug-15 00:57N 54°09' E 012°07'0 0.0
2017-Aug-14 23:57N 54°09' E 012°07'0 0.0
2017-Aug-14 23:30N 54°09' E 012°07'0 0.0
2017-Aug-14 23:00N 54°09' E 012°07'0 0.0
2017-Aug-14 22:30N 54°09' E 012°07'0 0.0
2017-Aug-14 20:33N 54°09' E 012°07'0 0.0
2017-Aug-14 20:21N 54°09' E 012°07'0 0.0
2017-Aug-14 18:39N 54°09' E 012°07'0 0.0
2017-Aug-14 18:21N 54°09' E 012°07'0 0.0
2017-Aug-14 15:13N 54°09' E 012°07'0 0.0
2017-Aug-14 15:01N 54°09' E 012°07'0 0.6
2017-Aug-14 14:30N 54°10' E 012°07'1 2.7
2017-Aug-14 14:00N 54°11' E 012°06'4 7.8
2017-Aug-14 13:29N 54°15' E 012°04'3 1.0
2017-Aug-14 10:29N 54°17' E 012°00'0 0.0
2017-Aug-14 07:32N 54°17' E 012°00'0 0.3
2017-Aug-14 07:30N 54°17' E 012°00'2 3.8
2017-Aug-14 07:01N 54°18' E 011°58'4 7.0
2017-Aug-14 06:30N 54°20' E 011°53'610.8
2017-Aug-14 05:58N 54°24' E 011°45'510.7
2017-Aug-14 05:29N 54°27' E 011°39'511.4
2017-Aug-14 05:00N 54°30' E 011°30'611.5
2017-Aug-14 04:30N 54°32' E 011°21'611.6
2017-Aug-14 04:01N 54°35' E 011°12'611.2
2017-Aug-14 03:30N 54°35' E 011°03'611.1
2017-Aug-14 03:00N 54°38' E 010°54'611.2
2017-Aug-14 02:30N 54°41' E 010°46'511.0
2017-Aug-14 02:00N 54°46' E 010°48'611.5
2017-Aug-14 01:30N 54°52' E 010°50'611.6
2017-Aug-14 01:00N 54°57' E 010°54'611.2
2017-Aug-14 00:30N 55°02' E 010°60'611.5
2017-Aug-14 00:00N 55°08' E 010°59'510.2
2017-Aug-13 23:30N 55°12' E 011°05'510.4
2017-Aug-13 23:00N 55°17' E 011°03'611.6
2017-Aug-13 22:29N 55°23' E 011°01'611.7
2017-Aug-13 21:59N 55°28' E 010°55'611.7
2017-Aug-13 21:29N 55°33' E 010°50'611.8
2017-Aug-13 21:00N 55°38' E 010°46'611.5
2017-Aug-13 20:30N 55°44' E 010°48'611.2
2017-Aug-13 19:55N 55°50' E 010°48'4 9.5
2017-Aug-13 19:30N 55°54' E 010°52'610.9
2017-Aug-13 19:00N 55°57' E 010°60'611.1
2017-Aug-13 18:29N 56°02' E 011°05'611.3
2017-Aug-13 17:59N 56°08' E 011°05'56 8.9
2017-Aug-13 11:42N 56°60' E 011°43'610.2
2017-Aug-13 11:06N 57°05' E 011°39'210.2
2017-Aug-13 10:53N 57°08' E 011°37'410.1
2017-Aug-13 10:29N 57°11' E 011°35'510.0
2017-Aug-13 10:00N 57°16' E 011°32'510.3
2017-Aug-13 09:29N 57°21' E 011°28'510.2
2017-Aug-13 09:00N 57°25' E 011°24'510.3
2017-Aug-13 08:31N 57°30' E 011°19'510.4
2017-Aug-13 08:00N 57°33' E 011°12'510.8
2017-Aug-13 07:30N 57°37' E 011°05'611.1
2017-Aug-13 07:00N 57°41' E 010°57'511.1
2017-Aug-13 06:30N 57°44' E 010°49'5 9.3
2017-Aug-13 06:00N 57°47' E 010°42'611.2
2017-Aug-13 05:31N 57°47' E 010°32'5 9.6
2017-Aug-13 05:00N 57°47' E 010°23'510.2
2017-Aug-13 04:30N 57°46' E 010°13'611.6
2017-Aug-13 03:59N 57°46' E 010°02'511.3
2017-Aug-13 03:30N 57°45' E 009°52'611.3
2017-Aug-13 02:59N 57°45' E 009°41'611.4
2017-Aug-13 02:30N 57°44' E 009°31'611.2
2017-Aug-13 01:59N 57°44' E 009°20'511.4
2017-Aug-13 01:30N 57°43' E 009°09'611.3
2017-Aug-13 00:59N 57°43' E 008°58'4510.8
2017-Aug-12 20:48N 57°42' E 007°34'310.2
2017-Aug-12 20:30N 57°42' E 007°28'510.0
2017-Aug-12 20:00N 57°42' E 007°19'5 9.8
2017-Aug-12 19:30N 57°42' E 007°10'5 9.9
2017-Aug-12 18:59N 57°42' E 007°00'5 9.9
2017-Aug-12 18:30N 57°42' E 006°51'510.2
2017-Aug-12 18:00N 57°43' E 006°42'510.4
2017-Aug-12 17:31N 57°43' E 006°32'610.7
2017-Aug-12 17:00N 57°45' E 006°22'511.0
2017-Aug-12 16:30N 57°46' E 006°12'510.9
2017-Aug-12 16:00N 57°48' E 006°03'611.3
2017-Aug-12 15:30N 57°49' E 005°52'26710.8
2017-Aug-11 14:49N 58°37' W 002°27'310.6
2017-Aug-11 14:30N 58°37' W 002°33'1010.0
2017-Aug-11 13:30N 58°37' W 002°52'713.6
2017-Aug-11 13:00N 58°42' W 003°02'612.2
2017-Aug-11 12:31N 58°43' W 003°14'510.6
2017-Aug-11 12:00N 58°43' W 003°24'510.1
2017-Aug-11 11:31N 58°43' W 003°34'5 9.7
2017-Aug-11 11:01N 58°43' W 003°43'510.4
2017-Aug-11 10:31N 58°43' W 003°53'611.0
2017-Aug-11 10:00N 58°43' W 004°04'510.9
2017-Aug-11 09:30N 58°43' W 004°14'5 9.8
2017-Aug-11 09:01N 58°43' W 004°24'5 9.4
2017-Aug-11 08:30N 58°43' W 004°33'25 9.3
2017-Aug-11 05:47N 58°31' W 005°15'310.0
2017-Aug-11 05:30N 58°29' W 005°18'510.0
2017-Aug-11 04:57N 58°24' W 005°24'  
Track history (hours):
 
Tides and Currents Weather Stations Pressure Air Temp Water Temp Dewpoint Dewpoint Depression Visibility Wind Speed Wind Dir Waves Ship Positions

Csl Argosy

Last reported at 2017-Aug-20 16:15 UTC. Time now 2017-Aug-20 19:10 UTC.
Position N 61°39' E 004°22'.

Length 244 m; draft 13.5 m.

Type: Cargo ship. MMSI: 308299000.

Date/timePositionNaut miles runAvg speedWind from/ knotsBaromVisibWave heightAir tempDewpointWater temp
2017-Aug-20 16:15N 61°39' E 004°22'2 9.2
2017-Aug-20 16:00N 61°40' E 004°26'5 9.6
2017-Aug-20 15:30N 61°42' E 004°35'510.2
2017-Aug-20 15:00N 61°42' E 004°46'5 9.9
2017-Aug-20 14:30N 61°44' E 004°55'4 8.6
2017-Aug-20 14:00N 61°46' E 005°04'3 5.5
2017-Aug-20 13:30N 61°46' E 005°10'0 0.2
2017-Aug-20 13:00N 61°46' E 005°10'0 0.0
2017-Aug-20 12:30N 61°46' E 005°10'0 0.0
2017-Aug-20 11:57N 61°46' E 005°10'0 0.0
2017-Aug-20 11:27N 61°46' E 005°10'0 0.0
2017-Aug-20 10:57N 61°46' E 005°10'0 0.0
2017-Aug-20 10:30N 61°46' E 005°10'0 0.0
2017-Aug-20 10:00N 61°46' E 005°10'0 0.0
2017-Aug-20 09:30N 61°46' E 005°10'0 0.0
2017-Aug-20 09:00N 61°46' E 005°10'0 0.0
2017-Aug-20 08:30N 61°46' E 005°10'0 0.0
2017-Aug-20 08:00N 61°46' E 005°10'0 0.0
2017-Aug-20 07:30N 61°46' E 005°10'0 0.0
2017-Aug-20 06:57N 61°46' E 005°10'0 0.0
2017-Aug-20 06:30N 61°46' E 005°10'0 0.0
2017-Aug-20 06:00N 61°46' E 005°10'0 0.0
2017-Aug-20 05:30N 61°46' E 005°10'0 0.0
2017-Aug-20 05:00N 61°46' E 005°10'0 0.0
2017-Aug-20 04:30N 61°46' E 005°10'0 0.0
2017-Aug-20 04:00N 61°46' E 005°10'0 0.0
2017-Aug-20 03:30N 61°46' E 005°10'0 0.0
2017-Aug-20 02:57N 61°46' E 005°10'0 0.0
2017-Aug-20 02:30N 61°46' E 005°10'0 0.0
2017-Aug-20 02:00N 61°46' E 005°10'0 0.0
2017-Aug-20 01:30N 61°46' E 005°10'0 0.0
2017-Aug-20 01:00N 61°46' E 005°10'0 0.1
2017-Aug-20 00:30N 61°46' E 005°10'0 0.0
2017-Aug-20 00:00N 61°46' E 005°10'0 0.0
2017-Aug-19 23:30N 61°46' E 005°10'0 0.0
2017-Aug-19 22:57N 61°46' E 005°10'0 0.0
2017-Aug-19 22:24N 61°46' E 005°10'0 0.0
2017-Aug-19 22:00N 61°46' E 005°10'0 0.0
2017-Aug-19 21:30N 61°46' E 005°10'0 0.0
2017-Aug-19 20:54N 61°46' E 005°10'0 0.0
2017-Aug-19 20:30N 61°46' E 005°10'0 0.0
2017-Aug-19 20:00N 61°46' E 005°10'0 0.0
2017-Aug-19 19:30N 61°46' E 005°10'0 0.0
2017-Aug-19 19:00N 61°46' E 005°10'0 0.0
2017-Aug-19 18:30N 61°46' E 005°10'0 0.0
2017-Aug-19 18:00N 61°46' E 005°10'0 0.3
2017-Aug-19 17:30N 61°46' E 005°10'0 0.8
2017-Aug-19 17:00N 61°46' E 005°11'0 0.3
2017-Aug-19 16:30N 61°46' E 005°11'1 1.5
2017-Aug-19 16:00N 61°46' E 005°12'1 1.2
2017-Aug-19 15:30N 61°46' E 005°14'0 0.1
2017-Aug-19 15:00N 61°46' E 005°14'0 0.1
2017-Aug-19 14:00N 61°46' E 005°14'0 0.1
2017-Aug-19 13:30N 61°46' E 005°14'0 0.1
2017-Aug-19 13:00N 61°46' E 005°14'0 0.1
2017-Aug-19 12:27N 61°46' E 005°14'0 0.0
2017-Aug-19 12:00N 61°46' E 005°14'0 0.1
2017-Aug-19 11:30N 61°46' E 005°14'0 0.0
2017-Aug-19 11:00N 61°46' E 005°13'0 0.0
2017-Aug-19 10:27N 61°46' E 005°13'0 0.0
2017-Aug-19 10:00N 61°46' E 005°13'0 0.0
2017-Aug-19 09:30N 61°46' E 005°13'0 0.0
2017-Aug-19 09:00N 61°46' E 005°13'0 0.0
2017-Aug-19 08:30N 61°46' E 005°13'0 0.0
2017-Aug-19 08:00N 61°46' E 005°13'0 0.0
2017-Aug-19 07:21N 61°46' E 005°13'0 0.0
2017-Aug-19 06:57N 61°46' E 005°13'0 0.0
2017-Aug-19 06:27N 61°46' E 005°13'0 0.0
2017-Aug-19 06:00N 61°46' E 005°13'0 0.0
2017-Aug-19 05:30N 61°46' E 005°13'0 0.1
2017-Aug-19 05:00N 61°46' E 005°13'1 1.2
2017-Aug-19 04:29N 61°46' E 005°12'1 2.6
2017-Aug-19 03:59N 61°46' E 005°10'0 0.0
2017-Aug-19 03:29N 61°46' E 005°10'0 0.0
2017-Aug-19 02:59N 61°46' E 005°10'0 0.0
2017-Aug-19 02:26N 61°46' E 005°10'0 0.0
2017-Aug-19 01:59N 61°46' E 005°10'0 0.0
2017-Aug-19 01:29N 61°46' E 005°10'0 0.0
2017-Aug-19 00:59N 61°46' E 005°10'0 0.0
2017-Aug-19 00:26N 61°46' E 005°10'0 0.0
2017-Aug-18 23:56N 61°46' E 005°10'0 0.0
2017-Aug-18 23:29N 61°46' E 005°10'0 0.0
2017-Aug-18 22:59N 61°46' E 005°10'0 0.0
2017-Aug-18 22:20N 61°46' E 005°10'0 0.0
2017-Aug-18 21:59N 61°46' E 005°10'0 0.0
2017-Aug-18 21:29N 61°46' E 005°10'0 0.0
2017-Aug-18 20:59N 61°46' E 005°10'0 0.0
2017-Aug-18 20:29N 61°46' E 005°10'0 0.0
2017-Aug-18 19:59N 61°46' E 005°10'0 0.0
2017-Aug-18 19:26N 61°46' E 005°10'0 0.0
2017-Aug-18 18:59N 61°46' E 005°10'0 0.0
2017-Aug-18 18:29N 61°46' E 005°10'0 0.0
2017-Aug-18 17:59N 61°46' E 005°10'0 0.0
2017-Aug-18 17:29N 61°46' E 005°10'0 0.0
2017-Aug-18 16:59N 61°46' E 005°10'0 0.0
2017-Aug-18 16:29N 61°46' E 005°10'0 0.0
2017-Aug-18 15:59N 61°46' E 005°10'0 0.0
2017-Aug-18 15:29N 61°46' E 005°10'0 0.0
2017-Aug-18 14:59N 61°46' E 005°10'0 0.0
2017-Aug-18 14:26N 61°46' E 005°10'0 0.0
2017-Aug-18 13:29N 61°46' E 005°10'0 0.0
2017-Aug-18 12:59N 61°46' E 005°10'0 0.0
2017-Aug-18 12:29N 61°46' E 005°10'0 0.0
2017-Aug-18 11:59N 61°46' E 005°10'0 0.0
2017-Aug-18 11:29N 61°46' E 005°10'0 0.0
2017-Aug-18 10:59N 61°46' E 005°10'0 0.0
2017-Aug-18 10:29N 61°46' E 005°10'0 0.0
2017-Aug-18 09:56N 61°46' E 005°10'0 0.0
2017-Aug-18 09:30N 61°46' E 005°10'0 0.0
2017-Aug-18 09:00N 61°46' E 005°10'0 0.0
2017-Aug-18 08:30N 61°46' E 005°10'0 0.0
2017-Aug-18 08:01N 61°46' E 005°10'0 0.6
2017-Aug-18 07:29N 61°46' E 005°09'2 4.2
2017-Aug-18 07:00N 61°46' E 005°05'4 7.9
2017-Aug-18 06:30N 61°45' E 004°57'510.3
2017-Aug-18 06:00N 61°42' E 004°47'5 9.9
2017-Aug-18 05:30N 61°42' E 004°37'510.3
2017-Aug-18 05:00N 61°42' E 004°26'168 9.2
2017-Aug-17 10:44N 58°54' E 004°23'310.0
2017-Aug-17 10:27N 58°52' E 004°26'510.0
2017-Aug-17 09:59N 58°49' E 004°32'5 9.9
2017-Aug-17 09:30N 58°45' E 004°39'510.0
2017-Aug-17 09:00N 58°42' E 004°46'510.5
2017-Aug-17 08:30N 58°38' E 004°53'510.7
2017-Aug-17 08:00N 58°35' E 005°01'510.7
2017-Aug-17 07:30N 58°31' E 005°08'611.1
2017-Aug-17 07:00N 58°27' E 005°15'511.1
2017-Aug-17 06:30N 58°23' E 005°22'611.2
2017-Aug-17 06:00N 58°19' E 005°30'612.2
2017-Aug-17 05:30N 58°15' E 005°39'612.2
2017-Aug-17 05:00N 58°11' E 005°48'612.1
2017-Aug-17 04:30N 58°07' E 005°56'612.1
2017-Aug-17 04:00N 58°03' E 006°04'612.5
2017-Aug-17 03:30N 57°58' E 006°13'613.0
2017-Aug-17 03:00N 57°54' E 006°22'712.8
2017-Aug-17 02:30N 57°50' E 006°32'612.5
2017-Aug-17 01:59N 57°47' E 006°42'612.7
2017-Aug-17 01:30N 57°46' E 006°54'712.9
2017-Aug-17 01:00N 57°45' E 007°06'612.8
2017-Aug-17 00:30N 57°45' E 007°18'612.6
2017-Aug-17 00:00N 57°45' E 007°30'612.7
2017-Aug-16 23:30N 57°45' E 007°41'612.3
2017-Aug-16 23:00N 57°46' E 007°53'612.2
2017-Aug-16 22:30N 57°47' E 008°04'2811.5
2017-Aug-16 20:04N 57°49' E 008°56'110.7
2017-Aug-16 19:59N 57°49' E 008°58'910.5
2017-Aug-16 19:07N 57°50' E 009°15'210.4
2017-Aug-16 18:57N 57°50' E 009°18'910.6
2017-Aug-16 18:08N 57°49' E 009°34'210.8
2017-Aug-16 17:56N 57°49' E 009°38'610.8
2017-Aug-16 17:23N 57°49' E 009°50'410.9
2017-Aug-16 17:00N 57°49' E 009°57'611.0
2017-Aug-16 16:30N 57°49' E 010°08'510.8
2017-Aug-16 16:00N 57°49' E 010°18'510.9
2017-Aug-16 15:30N 57°49' E 010°28'610.9
2017-Aug-16 15:00N 57°49' E 010°38'510.2
2017-Aug-16 14:30N 57°48' E 010°48'510.4
2017-Aug-16 13:59N 57°44' E 010°55'510.6
2017-Aug-16 13:30N 57°40' E 011°02'510.4
2017-Aug-16 13:00N 57°37' E 011°08'510.3
2017-Aug-16 12:30N 57°33' E 011°15'510.6
2017-Aug-16 12:00N 57°30' E 011°23'510.4
2017-Aug-16 11:29N 57°25' E 011°28'510.9
2017-Aug-16 11:00N 57°20' E 011°32'611.0
2017-Aug-16 10:30N 57°15' E 011°34'611.0
2017-Aug-16 09:58N 57°10' E 011°38'610.9
2017-Aug-16 09:23N 57°03' E 011°42'610.7
2017-Aug-16 08:51N 56°58' E 011°46'610.3
2017-Aug-16 08:14N 56°52' E 011°49'310.5
2017-Aug-16 07:58N 56°49' E 011°51'7 9.6
2017-Aug-16 07:14N 56°43' E 011°50'311.2
2017-Aug-16 06:58N 56°40' E 011°48'811.1
2017-Aug-16 06:17N 56°33' E 011°41'310.9
2017-Aug-16 05:59N 56°31' E 011°38'510.9
2017-Aug-16 05:29N 56°26' E 011°33'710.9
2017-Aug-16 04:50N 56°20' E 011°26'310.7
2017-Aug-16 04:30N 56°17' E 011°23'810.6
2017-Aug-16 03:48N 56°10' E 011°16'411.4
2017-Aug-16 03:29N 56°08' E 011°12'711.0
2017-Aug-16 02:49N 56°01' E 011°05'411.5
2017-Aug-16 02:29N 55°58' E 011°02'611.8
2017-Aug-16 02:00N 55°54' E 010°55'612.2
2017-Aug-16 01:29N 55°48' E 010°49'612.5
2017-Aug-16 00:59N 55°42' E 010°48'612.3
2017-Aug-16 00:29N 55°36' E 010°49'612.3
2017-Aug-16 00:00N 55°31' E 010°53'611.8
2017-Aug-15 23:30N 55°26' E 010°59'612.7
2017-Aug-15 23:00N 55°20' E 011°02'612.0
2017-Aug-15 22:30N 55°14' E 011°06'612.2
2017-Aug-15 22:00N 55°08' E 011°03'612.8
2017-Aug-15 21:30N 55°02' E 011°02'611.3
2017-Aug-15 21:00N 54°57' E 010°58'713.1
2017-Aug-15 20:30N 54°51' E 010°53'713.5
2017-Aug-15 20:00N 54°44' E 010°53'612.1
2017-Aug-15 19:30N 54°40' E 010°60'713.1
2017-Aug-15 19:00N 54°37' E 011°10'713.2
2017-Aug-15 18:30N 54°34' E 011°20'612.8
2017-Aug-15 18:00N 54°31' E 011°30'612.5
2017-Aug-15 17:30N 54°28' E 011°40'612.3
2017-Aug-15 17:00N 54°25' E 011°49'811.5
2017-Aug-15 16:21N 54°21' E 011°60'710.4
2017-Aug-15 15:41N 54°15' E 012°04'2 9.5
2017-Aug-15 15:30N 54°13' E 012°04'4 1.4
2017-Aug-15 12:45N 54°09' E 012°07'0 0.0
2017-Aug-15 12:27N 54°09' E 012°07'0 0.0
2017-Aug-15 08:36N 54°09' E 012°07'0 0.0
2017-Aug-15 08:27N 54°09' E 012°07'0 0.0
2017-Aug-15 08:00N 54°09' E 012°07'0 0.0
2017-Aug-15 07:15N 54°09' E 012°07'0 0.0
2017-Aug-15 06:57N 54°09' E 012°07'0 0.0
2017-Aug-15 06:30N 54°09' E 012°07'0 0.0
2017-Aug-15 05:21N 54°09' E 012°07'0 0.0
2017-Aug-15 05:00N 54°09' E 012°07'0 0.0
2017-Aug-15 02:57N 54°09' E 012°07'0 0.0
2017-Aug-15 00:57N 54°09' E 012°07'0 0.0
2017-Aug-14 23:57N 54°09' E 012°07'0 0.0
2017-Aug-14 23:30N 54°09' E 012°07'0 0.0
2017-Aug-14 23:00N 54°09' E 012°07'0 0.0
2017-Aug-14 22:30N 54°09' E 012°07'0 0.0
2017-Aug-14 20:33N 54°09' E 012°07'0 0.0
2017-Aug-14 20:21N 54°09' E 012°07'0 0.0
2017-Aug-14 18:39N 54°09' E 012°07'0 0.0
2017-Aug-14 18:21N 54°09' E 012°07'0 0.0
2017-Aug-14 15:13N 54°09' E 012°07'0 0.0
2017-Aug-14 15:01N 54°09' E 012°07'0 0.6
2017-Aug-14 14:30N 54°10' E 012°07'1 2.7
2017-Aug-14 14:00N 54°11' E 012°06'4 7.8
2017-Aug-14 13:29N 54°15' E 012°04'3 1.0
2017-Aug-14 10:29N 54°17' E 012°00'0 0.0
2017-Aug-14 07:32N 54°17' E 012°00'0 0.3
2017-Aug-14 07:30N 54°17' E 012°00'2 3.8
2017-Aug-14 07:01N 54°18' E 011°58'4 7.0
2017-Aug-14 06:30N 54°20' E 011°53'610.8
2017-Aug-14 05:58N 54°24' E 011°45'510.7
2017-Aug-14 05:29N 54°27' E 011°39'511.4
2017-Aug-14 05:00N 54°30' E 011°30'611.5
2017-Aug-14 04:30N 54°32' E 011°21'611.6
2017-Aug-14 04:01N 54°35' E 011°12'611.2
2017-Aug-14 03:30N 54°35' E 011°03'611.1
2017-Aug-14 03:00N 54°38' E 010°54'611.2
2017-Aug-14 02:30N 54°41' E 010°46'511.0
2017-Aug-14 02:00N 54°46' E 010°48'611.5
2017-Aug-14 01:30N 54°52' E 010°50'611.6
2017-Aug-14 01:00N 54°57' E 010°54'611.2
2017-Aug-14 00:30N 55°02' E 010°60'611.5
2017-Aug-14 00:00N 55°08' E 010°59'510.2
2017-Aug-13 23:30N 55°12' E 011°05'510.4
2017-Aug-13 23:00N 55°17' E 011°03'611.6
2017-Aug-13 22:29N 55°23' E 011°01'611.7
2017-Aug-13 21:59N 55°28' E 010°55'611.7
2017-Aug-13 21:29N 55°33' E 010°50'611.8
2017-Aug-13 21:00N 55°38' E 010°46'611.5
2017-Aug-13 20:30N 55°44' E 010°48'611.2
2017-Aug-13 19:55N 55°50' E 010°48'4 9.5
2017-Aug-13 19:30N 55°54' E 010°52'610.9
2017-Aug-13 19:00N 55°57' E 010°60'611.1
2017-Aug-13 18:29N 56°02' E 011°05'611.3
2017-Aug-13 17:59N 56°08' E 011°05'56 8.9
2017-Aug-13 11:42N 56°60' E 011°43'610.2
2017-Aug-13 11:06N 57°05' E 011°39'210.2
2017-Aug-13 10:53N 57°08' E 011°37'410.1
2017-Aug-13 10:29N 57°11' E 011°35'510.0
2017-Aug-13 10:00N 57°16' E 011°32'510.3
2017-Aug-13 09:29N 57°21' E 011°28'510.2
2017-Aug-13 09:00N 57°25' E 011°24'510.3
2017-Aug-13 08:31N 57°30' E 011°19'510.4
2017-Aug-13 08:00N 57°33' E 011°12'510.8
2017-Aug-13 07:30N 57°37' E 011°05'611.1
2017-Aug-13 07:00N 57°41' E 010°57'511.1
2017-Aug-13 06:30N 57°44' E 010°49'5 9.3
2017-Aug-13 06:00N 57°47' E 010°42'611.2
2017-Aug-13 05:31N 57°47' E 010°32'5 9.6
2017-Aug-13 05:00N 57°47' E 010°23'510.2
2017-Aug-13 04:30N 57°46' E 010°13'611.6
2017-Aug-13 03:59N 57°46' E 010°02'511.3
2017-Aug-13 03:30N 57°45' E 009°52'611.3
2017-Aug-13 02:59N 57°45' E 009°41'611.4
2017-Aug-13 02:30N 57°44' E 009°31'611.2
2017-Aug-13 01:59N 57°44' E 009°20'511.4
2017-Aug-13 01:30N 57°43' E 009°09'611.3
2017-Aug-13 00:59N 57°43' E 008°58'4510.8
2017-Aug-12 20:48N 57°42' E 007°34'310.2
2017-Aug-12 20:30N 57°42' E 007°28'510.0
2017-Aug-12 20:00N 57°42' E 007°19'5 9.8
2017-Aug-12 19:30N 57°42' E 007°10'5 9.9
2017-Aug-12 18:59N 57°42' E 007°00'5 9.9
2017-Aug-12 18:30N 57°42' E 006°51'510.2
2017-Aug-12 18:00N 57°43' E 006°42'510.4
2017-Aug-12 17:31N 57°43' E 006°32'610.7
2017-Aug-12 17:00N 57°45' E 006°22'511.0
2017-Aug-12 16:30N 57°46' E 006°12'510.9
2017-Aug-12 16:00N 57°48' E 006°03'611.3
2017-Aug-12 15:30N 57°49' E 005°52'26710.8
2017-Aug-11 14:49N 58°37' W 002°27'310.6
2017-Aug-11 14:30N 58°37' W 002°33'1010.0
2017-Aug-11 13:30N 58°37' W 002°52'713.6
2017-Aug-11 13:00N 58°42' W 003°02'612.2
2017-Aug-11 12:31N 58°43' W 003°14'510.6
2017-Aug-11 12:00N 58°43' W 003°24'510.1
2017-Aug-11 11:31N 58°43' W 003°34'5 9.7
2017-Aug-11 11:01N 58°43' W 003°43'510.4
2017-Aug-11 10:31N 58°43' W 003°53'611.0
2017-Aug-11 10:00N 58°43' W 004°04'510.9
2017-Aug-11 09:30N 58°43' W 004°14'5 9.8
2017-Aug-11 09:01N 58°43' W 004°24'5 9.4
2017-Aug-11 08:30N 58°43' W 004°33'25 9.3
2017-Aug-11 05:47N 58°31' W 005°15'310.0
2017-Aug-11 05:30N 58°29' W 005°18'510.0
2017-Aug-11 04:57N 58°24' W 005°24'  

Dump ship's entire track history